Time;durP1;ratioP1;P1;durP2;ratioP2;P2;SDS_P1;SDS_P2;PMS_P1;PMS_P2;Temp;Humidity;BMP_temperature;BMP_pressure;BME280_temperature;BME280_humidity;BME280_pressure;Samples;Min_cycle;Max_cycle;Signal;HPM_P1;HPM_P2
2021/06/30 00:00:32;;;;;;;2.65;1.92;;;15.60;96.30;;;;;;5091010;28;20016;-67
2021/06/30 00:02:58;;;;;;;4.68;1.88;;;15.60;96.30;;;;;;5090918;28;20030;-69
2021/06/30 00:05:24;;;;;;;3.55;1.80;;;15.60;96.30;;;;;;5084468;28;20674;-69
2021/06/30 00:07:50;;;;;;;2.10;1.88;;;15.60;96.20;;;;;;5073235;28;20028;-69
2021/06/30 00:10:16;;;;;;;2.17;1.80;;;15.60;96.20;;;;;;5076326;28;20024;-69
2021/06/30 00:12:42;;;;;;;3.97;1.77;;;15.50;96.20;;;;;;5070088;28;20024;-69
2021/06/30 00:15:17;;;;;;;4.38;1.80;;;15.50;96.20;;;;;;5053085;28;20024;-69
2021/06/30 00:17:43;;;;;;;3.30;1.65;;;15.50;96.20;;;;;;5088762;28;20024;-68
2021/06/30 00:20:09;;;;;;;6.13;1.90;;;15.50;96.20;;;;;;5091637;28;20070;-70
2021/06/30 00:22:35;;;;;;;3.28;1.85;;;15.50;96.20;;;;;;5089708;28;20020;-69
2021/06/30 00:25:00;;;;;;;4.10;1.98;;;15.50;96.20;;;;;;5053558;28;20031;-68
2021/06/30 00:27:26;;;;;;;3.72;1.70;;;15.50;96.20;;;;;;5091090;28;20377;-71
2021/06/30 00:29:52;;;;;;;2.40;1.75;;;15.50;96.20;;;;;;5090167;28;20051;-70
2021/06/30 00:32:17;;;;;;;3.40;1.77;;;15.40;96.10;;;;;;5090385;28;20032;-70
2021/06/30 00:34:43;;;;;;;2.75;1.60;;;15.40;96.10;;;;;;5080180;28;20028;-70
2021/06/30 00:37:09;;;;;;;2.92;1.52;;;15.40;96.20;;;;;;5090683;28;20028;-68
2021/06/30 00:39:35;;;;;;;2.53;1.70;;;15.50;96.20;;;;;;5090856;28;20039;-67
2021/06/30 00:42:01;;;;;;;2.95;1.60;;;15.50;96.20;;;;;;5077272;28;20024;-72
2021/06/30 00:44:26;;;;;;;2.65;1.67;;;15.50;96.20;;;;;;5053473;28;20560;-69
2021/06/30 00:46:52;;;;;;;2.08;1.88;;;15.50;96.20;;;;;;5088397;28;20024;-70
2021/06/30 00:49:17;;;;;;;2.95;2.03;;;15.50;96.10;;;;;;5091378;28;20383;-70
2021/06/30 00:51:43;;;;;;;2.15;1.90;;;15.40;96.10;;;;;;5085153;28;20028;-69
2021/06/30 00:54:09;;;;;;;2.45;1.60;;;15.40;96.10;;;;;;5087196;28;20076;-71
2021/06/30 00:56:35;;;;;;;3.15;2.08;;;15.40;96.20;;;;;;5089786;28;20437;-70
2021/06/30 00:59:02;;;;;;;2.42;2.22;;;15.40;96.40;;;;;;5071899;28;20028;-71
2021/06/30 01:01:28;;;;;;;2.47;1.92;;;15.40;96.20;;;;;;5088422;28;20038;-69
2021/06/30 01:03:54;;;;;;;2.50;2.00;;;15.40;96.20;;;;;;5080945;28;20024;-68
2021/06/30 01:06:21;;;;;;;3.53;2.00;;;15.40;96.20;;;;;;5090160;28;20047;-68
2021/06/30 01:08:46;;;;;;;4.30;1.90;;;15.40;96.20;;;;;;5089849;28;20024;-70
2021/06/30 01:11:13;;;;;;;2.47;2.22;;;15.40;96.20;;;;;;5089229;28;20053;-70
2021/06/30 01:13:40;;;;;;;2.80;1.90;;;15.40;96.20;;;;;;5081073;28;20174;-70
2021/06/30 01:16:06;;;;;;;4.28;2.30;;;15.40;96.30;;;;;;5081985;28;20032;-69
2021/06/30 01:18:33;;;;;;;3.22;1.80;;;15.40;96.30;;;;;;5089841;28;20016;-69
2021/06/30 01:21:00;;;;;;;3.38;2.03;;;15.40;96.40;;;;;;5070249;28;20039;-70
2021/06/30 01:23:26;;;;;;;3.30;2.10;;;15.40;96.40;;;;;;5088413;28;20028;-68
2021/06/30 01:25:53;;;;;;;2.92;2.20;;;15.40;96.40;;;;;;5072988;28;20020;-67
2021/06/30 01:28:19;;;;;;;4.10;1.98;;;15.50;96.40;;;;;;5090527;28;20099;-70
2021/06/30 01:30:47;;;;;;;2.13;1.60;;;15.50;96.30;;;;;;5086800;28;20031;-70
2021/06/30 01:33:13;;;;;;;2.63;2.22;;;15.50;96.20;;;;;;5054195;28;20495;-70
2021/06/30 01:35:40;;;;;;;7.35;2.30;;;15.50;96.20;;;;;;5088447;28;20028;-70
2021/06/30 01:38:05;;;;;;;4.97;2.47;;;15.40;96.10;;;;;;5090750;28;20020;-70
2021/06/30 01:40:32;;;;;;;4.55;2.17;;;15.40;96.00;;;;;;5089040;28;20032;-70
2021/06/30 01:42:58;;;;;;;4.40;3.10;;;15.40;96.10;;;;;;5070456;28;20024;-71
2021/06/30 01:45:24;;;;;;;3.95;2.90;;;15.40;96.20;;;;;;5082705;28;20119;-71
2021/06/30 01:47:50;;;;;;;5.00;2.58;;;15.30;96.10;;;;;;5067728;28;20020;-76
2021/06/30 01:50:17;;;;;;;6.60;3.20;;;15.30;96.20;;;;;;5088741;28;20368;-71
2021/06/30 01:52:43;;;;;;;9.25;4.30;;;15.30;96.30;;;;;;5095062;28;20035;-70
2021/06/30 01:55:10;;;;;;;7.47;4.47;;;15.30;96.30;;;;;;5089562;28;20073;-70
2021/06/30 01:57:41;;;;;;;8.90;4.47;;;15.20;96.20;;;;;;5090941;28;20036;-70
2021/06/30 02:00:09;;;;;;;5.32;4.63;;;15.20;96.30;;;;;;5091451;28;20027;-68
2021/06/30 02:02:36;;;;;;;8.25;4.38;;;15.10;96.30;;;;;;5081004;28;20119;-68
2021/06/30 02:05:16;;;;;;;6.00;4.40;;;15.10;96.30;;;;;;5090296;28;20032;-68
2021/06/30 02:07:57;;;;;;;4.85;3.88;;;15.10;96.50;;;;;;5076478;28;20027;-69
2021/06/30 02:10:24;;;;;;;4.40;3.42;;;15.10;96.60;;;;;;5085544;28;20020;-70
2021/06/30 02:12:50;;;;;;;3.40;3.10;;;15.00;96.50;;;;;;5089896;28;20123;-71
2021/06/30 02:15:22;;;;;;;3.55;2.55;;;15.00;96.50;;;;;;5090178;28;20020;-68
2021/06/30 02:17:48;;;;;;;2.60;2.33;;;15.00;96.60;;;;;;5069498;28;20103;-70
2021/06/30 02:20:15;;;;;;;2.45;2.25;;;15.00;96.60;;;;;;5071628;28;20062;-70
2021/06/30 02:22:41;;;;;;;3.92;2.40;;;15.00;96.60;;;;;;5063814;28;20031;-70
2021/06/30 02:25:09;;;;;;;2.63;2.42;;;15.00;96.60;;;;;;5073435;28;20109;-70
2021/06/30 02:27:35;;;;;;;4.28;2.22;;;15.10;96.70;;;;;;5076906;28;20107;-72
2021/06/30 02:30:03;;;;;;;3.60;2.80;;;15.00;96.70;;;;;;5086683;28;20060;-70
2021/06/30 02:32:29;;;;;;;2.65;2.45;;;15.00;96.70;;;;;;5076277;28;20043;-70
2021/06/30 02:34:56;;;;;;;2.75;2.53;;;15.00;96.70;;;;;;5078925;28;20032;-69
2021/06/30 02:37:22;;;;;;;2.75;2.00;;;15.00;96.70;;;;;;5091311;28;20028;-71
2021/06/30 02:39:47;;;;;;;1.85;1.70;;;15.00;96.70;;;;;;5092035;28;20016;-70
2021/06/30 02:42:13;;;;;;;2.60;1.48;;;15.00;96.70;;;;;;5074608;28;20473;-70
2021/06/30 02:44:38;;;;;;;1.77;1.67;;;15.00;96.80;;;;;;5090786;28;20042;-70
2021/06/30 02:47:04;;;;;;;2.30;2.10;;;15.00;96.80;;;;;;5088508;28;20070;-69
2021/06/30 02:49:30;;;;;;;2.55;1.42;;;15.00;96.80;;;;;;5092474;28;20092;-70
2021/06/30 02:51:55;;;;;;;2.35;1.48;;;15.00;96.80;;;;;;5089548;28;20539;-71
2021/06/30 02:54:21;;;;;;;4.65;1.42;;;15.00;96.80;;;;;;5087974;28;20039;-69
2021/06/30 02:56:46;;;;;;;1.20;1.20;;;15.00;96.80;;;;;;5080147;28;20138;-69
2021/06/30 02:59:12;;;;;;;1.33;1.23;;;15.00;96.90;;;;;;5086999;28;20365;-71
2021/06/30 03:01:37;;;;;;;2.67;1.27;;;15.00;96.90;;;;;;5092721;28;20035;-69
2021/06/30 03:04:03;;;;;;;1.38;1.17;;;15.00;96.90;;;;;;5093844;28;20498;-69
2021/06/30 03:06:29;;;;;;;1.38;1.27;;;15.00;96.90;;;;;;5072563;28;20032;-68
2021/06/30 03:08:54;;;;;;;1.50;1.20;;;15.00;96.90;;;;;;5083197;28;20535;-69
2021/06/30 03:11:20;;;;;;;1.50;1.40;;;15.00;96.90;;;;;;5093482;28;20146;-70
2021/06/30 03:13:45;;;;;;;1.20;1.20;;;15.00;97.00;;;;;;5093027;28;20498;-70
2021/06/30 03:16:13;;;;;;;2.83;1.17;;;15.00;97.00;;;;;;5090644;28;20438;-68
2021/06/30 03:18:39;;;;;;;3.63;1.48;;;15.00;97.00;;;;;;5090871;28;20104;-70
2021/06/30 03:21:04;;;;;;;3.38;1.60;;;15.00;97.00;;;;;;5092996;28;20373;-69
2021/06/30 03:23:30;;;;;;;3.53;1.48;;;15.00;97.00;;;;;;5073377;28;20036;-70
2021/06/30 03:25:55;;;;;;;3.55;1.50;;;15.00;97.00;;;;;;5071713;28;20028;-70
2021/06/30 03:28:21;;;;;;;1.50;1.40;;;15.00;96.90;;;;;;5093067;28;20043;-70
2021/06/30 03:30:47;;;;;;;1.40;1.30;;;15.00;96.90;;;;;;5092665;28;20048;-70
2021/06/30 03:33:12;;;;;;;4.30;1.48;;;15.00;96.90;;;;;;5086732;28;20028;-69
2021/06/30 03:35:38;;;;;;;1.55;1.45;;;15.00;97.00;;;;;;5087638;28;20210;-69
2021/06/30 03:38:03;;;;;;;2.28;1.65;;;15.00;97.00;;;;;;5092537;28;20032;-67
2021/06/30 03:40:29;;;;;;;2.03;1.80;;;15.00;97.00;;;;;;5075043;28;20021;-69
2021/06/30 03:42:55;;;;;;;4.47;1.40;;;15.00;97.00;;;;;;5079862;28;20040;-70
2021/06/30 03:45:20;;;;;;;2.30;1.60;;;15.00;97.00;;;;;;5053658;28;20521;-69
2021/06/30 03:50:14;;;;;;;3.10;1.23;;;14.90;97.00;;;;;;5063739;28;20043;-70
2021/06/30 03:52:40;;;;;;;1.95;0.90;;;14.90;97.00;;;;;;5058886;28;20017;-67
2021/06/30 03:55:06;;;;;;;2.40;0.80;;;14.90;97.00;;;;;;5064252;28;20025;-68
2021/06/30 03:57:32;;;;;;;1.30;0.90;;;14.90;96.90;;;;;;5071543;28;20028;-71
2021/06/30 03:59:58;;;;;;;0.80;0.80;;;14.90;96.90;;;;;;5053775;28;20025;-68
2021/06/30 04:02:23;;;;;;;0.93;0.70;;;14.90;96.90;;;;;;5070872;28;20016;-67
2021/06/30 04:04:49;;;;;;;1.60;0.70;;;14.90;96.90;;;;;;5070386;28;20028;-68
2021/06/30 04:07:15;;;;;;;1.98;0.80;;;14.90;96.90;;;;;;5071283;28;20048;-69
2021/06/30 04:09:40;;;;;;;2.63;0.98;;;14.90;96.90;;;;;;5070995;28;20028;-71
2021/06/30 04:12:06;;;;;;;1.10;0.98;;;14.90;96.80;;;;;;5071067;28;20803;-68
2021/06/30 04:14:32;;;;;;;1.52;0.80;;;14.90;96.90;;;;;;5070729;28;20112;-67
2021/06/30 04:16:58;;;;;;;0.88;0.75;;;14.90;96.90;;;;;;5070553;28;20112;-67
2021/06/30 04:19:24;;;;;;;2.15;0.75;;;14.90;96.90;;;;;;5069789;28;20706;-68
2021/06/30 04:21:50;;;;;;;0.82;0.82;;;14.80;96.80;;;;;;5053253;28;20028;-68
2021/06/30 04:24:16;;;;;;;1.30;0.65;;;14.80;96.80;;;;;;5069983;28;20028;-69
2021/06/30 04:26:42;;;;;;;3.35;0.90;;;14.80;96.90;;;;;;5070161;28;20183;-68
2021/06/30 04:29:08;;;;;;;0.82;0.60;;;14.80;96.80;;;;;;5070912;28;20024;-68
2021/06/30 04:31:34;;;;;;;1.63;0.63;;;14.70;96.80;;;;;;5070082;28;20099;-68
2021/06/30 04:34:00;;;;;;;1.17;0.60;;;14.70;96.70;;;;;;5069677;28;20036;-68
2021/06/30 04:36:26;;;;;;;1.45;0.47;;;14.70;96.80;;;;;;5059620;28;20024;-68
2021/06/30 04:38:51;;;;;;;0.47;0.47;;;14.70;96.70;;;;;;5052263;28;20024;-69
2021/06/30 04:41:17;;;;;;;0.40;0.40;;;14.70;96.70;;;;;;5070091;28;20020;-69
2021/06/30 04:43:43;;;;;;;0.50;0.50;;;14.60;96.60;;;;;;5052256;28;20081;-69
2021/06/30 04:46:08;;;;;;;0.40;0.40;;;14.60;96.50;;;;;;5069831;28;20123;-67
2021/06/30 04:48:34;;;;;;;0.93;0.40;;;14.60;96.40;;;;;;5065047;28;20412;-68
2021/06/30 04:51:04;;;;;;;1.17;0.32;;;14.60;96.40;;;;;;5050745;28;20098;-69
2021/06/30 04:53:29;;;;;;;0.85;0.30;;;14.50;96.30;;;;;;5064964;28;20075;-69
2021/06/30 04:55:55;;;;;;;0.30;0.30;;;14.50;96.30;;;;;;5048157;28;20113;-68
2021/06/30 04:58:23;;;;;;;1.92;0.35;;;14.50;96.40;;;;;;5070573;28;20117;-67
2021/06/30 05:00:53;;;;;;;0.30;0.30;;;14.50;96.30;;;;;;5070839;28;20079;-67
2021/06/30 05:03:19;;;;;;;0.30;0.30;;;14.50;96.30;;;;;;5068732;28;20028;-67
2021/06/30 05:05:44;;;;;;;0.55;0.30;;;14.50;96.30;;;;;;5069192;28;20066;-67
2021/06/30 05:08:10;;;;;;;4.55;0.63;;;14.50;96.20;;;;;;5070203;28;20103;-69
2021/06/30 05:10:36;;;;;;;0.60;0.47;;;14.50;96.20;;;;;;5070090;28;20427;-68
2021/06/30 05:13:02;;;;;;;1.33;0.40;;;14.40;96.20;;;;;;5052512;28;20025;-72
2021/06/30 05:15:27;;;;;;;0.75;0.52;;;14.40;96.20;;;;;;5051741;28;20264;-67
2021/06/30 05:17:54;;;;;;;0.52;0.40;;;14.40;96.10;;;;;;5064523;28;20493;-67
2021/06/30 05:20:19;;;;;;;0.30;0.30;;;14.30;96.00;;;;;;5053797;28;20027;-68
2021/06/30 05:22:45;;;;;;;0.43;0.43;;;14.20;96.10;;;;;;5068667;28;20028;-67
2021/06/30 05:25:12;;;;;;;0.30;0.30;;;14.20;96.10;;;;;;5068503;28;20017;-71
2021/06/30 05:27:37;;;;;;;0.68;0.40;;;14.10;96.10;;;;;;5051997;28;20092;-68
2021/06/30 05:30:04;;;;;;;0.40;0.40;;;14.10;96.10;;;;;;5067740;28;20124;-69
2021/06/30 05:32:30;;;;;;;0.50;0.40;;;14.00;96.20;;;;;;5051798;28;20468;-67
2021/06/30 05:34:55;;;;;;;0.95;0.95;;;14.00;96.30;;;;;;5049634;28;20063;-67
2021/06/30 05:37:21;;;;;;;1.45;0.45;;;14.00;96.40;;;;;;5067415;28;20024;-68
2021/06/30 05:39:47;;;;;;;1.00;0.90;;;14.00;96.40;;;;;;5066028;28;20025;-68
2021/06/30 05:42:12;;;;;;;0.47;0.47;;;14.00;96.50;;;;;;5066248;28;20546;-67
2021/06/30 05:44:38;;;;;;;1.85;0.47;;;14.00;96.60;;;;;;5069417;28;20048;-67
2021/06/30 05:47:03;;;;;;;1.48;0.55;;;14.00;96.60;;;;;;5063746;28;20025;-64
2021/06/30 05:49:29;;;;;;;0.50;0.50;;;14.10;96.60;;;;;;5047402;28;20052;-68
2021/06/30 05:51:55;;;;;;;2.60;0.40;;;14.10;96.60;;;;;;5069760;28;20024;-67
2021/06/30 05:54:20;;;;;;;0.65;0.50;;;14.10;96.60;;;;;;5069580;28;20417;-67
2021/06/30 05:56:47;;;;;;;1.38;0.82;;;14.10;96.60;;;;;;5068212;28;20020;-67
2021/06/30 05:59:13;;;;;;;0.80;0.80;;;14.20;96.60;;;;;;5052461;28;20027;-67
2021/06/30 06:01:39;;;;;;;1.35;0.77;;;14.20;96.60;;;;;;5068683;28;20108;-67
2021/06/30 06:04:04;;;;;;;0.80;0.30;;;14.30;96.70;;;;;;5058923;28;20029;-67
2021/06/30 06:06:30;;;;;;;1.58;0.50;;;14.20;96.60;;;;;;5061084;28;20488;-67
2021/06/30 06:08:55;;;;;;;0.40;0.40;;;14.30;96.60;;;;;;5069819;28;20033;-66
2021/06/30 06:11:22;;;;;;;1.65;0.40;;;14.30;96.60;;;;;;5066881;28;20716;-68
2021/06/30 06:13:48;;;;;;;1.30;0.50;;;14.30;96.60;;;;;;5073093;28;20500;-71
2021/06/30 06:16:16;;;;;;;0.30;0.30;;;14.40;96.70;;;;;;5072340;28;20032;-66
2021/06/30 06:18:42;;;;;;;0.60;0.50;;;14.40;96.60;;;;;;5067873;28;20440;-69
2021/06/30 06:21:08;;;;;;;0.60;0.60;;;14.40;96.70;;;;;;5068709;28;20024;-68
2021/06/30 06:23:34;;;;;;;0.40;0.40;;;14.40;96.70;;;;;;5073791;28;20077;-70
2021/06/30 06:26:00;;;;;;;1.83;0.30;;;14.40;96.60;;;;;;5054324;28;20037;-66
2021/06/30 06:28:30;;;;;;;1.65;0.22;;;14.40;96.60;;;;;;5073215;28;20680;-66
2021/06/30 06:30:56;;;;;;;1.27;0.30;;;14.50;96.70;;;;;;5048441;28;20029;-66
2021/06/30 06:33:21;;;;;;;0.40;0.40;;;14.50;96.60;;;;;;5070557;28;20566;-66
2021/06/30 06:35:48;;;;;;;0.47;0.40;;;14.60;96.70;;;;;;5071560;28;20060;-66
2021/06/30 06:38:14;;;;;;;1.35;1.23;;;14.60;96.70;;;;;;5072972;28;20043;-66
2021/06/30 06:40:41;;;;;;;0.35;0.35;;;14.70;96.70;;;;;;5073189;28;20035;-66
2021/06/30 06:43:07;;;;;;;1.40;0.50;;;14.70;96.60;;;;;;5072783;28;20020;-70
2021/06/30 06:45:33;;;;;;;0.40;0.40;;;14.70;96.50;;;;;;5070944;28;20013;-67
2021/06/30 06:47:58;;;;;;;1.10;0.40;;;14.80;96.50;;;;;;5070319;28;20036;-68
2021/06/30 06:50:24;;;;;;;2.25;0.40;;;14.80;96.30;;;;;;5072906;28;20086;-65
2021/06/30 06:52:50;;;;;;;0.40;0.40;;;14.80;96.30;;;;;;5064447;28;20031;-67
2021/06/30 06:55:15;;;;;;;1.30;0.25;;;14.90;96.20;;;;;;5060579;28;20029;-66
2021/06/30 06:57:41;;;;;;;0.70;0.30;;;14.90;96.20;;;;;;5061465;28;20033;-67
2021/06/30 07:00:08;;;;;;;1.10;1.05;;;15.00;96.10;;;;;;5067113;28;20068;-68
2021/06/30 07:02:33;;;;;;;0.40;0.40;;;15.10;96.10;;;;;;5034985;28;20059;-67
2021/06/30 07:04:59;;;;;;;0.45;0.40;;;15.20;96.00;;;;;;5043109;28;20032;-67
2021/06/30 07:07:25;;;;;;;0.30;0.30;;;15.20;95.90;;;;;;5072809;28;20103;-69
2021/06/30 07:09:50;;;;;;;0.43;0.30;;;15.30;95.80;;;;;;5072797;28;20382;-66
2021/06/30 07:12:16;;;;;;;0.22;0.22;;;15.30;95.80;;;;;;5054402;28;20044;-66
2021/06/30 07:14:42;;;;;;;0.40;0.40;;;15.30;95.70;;;;;;5070052;28;20060;-66
2021/06/30 07:17:08;;;;;;;1.15;0.30;;;15.30;95.70;;;;;;5066768;28;20062;-66
2021/06/30 07:19:34;;;;;;;0.68;0.30;;;15.30;95.60;;;;;;5060071;28;20080;-68
2021/06/30 07:21:59;;;;;;;0.28;0.28;;;15.30;95.50;;;;;;5053052;28;20028;-66
2021/06/30 07:24:25;;;;;;;0.32;0.20;;;15.40;95.50;;;;;;5061632;28;20047;-65
2021/06/30 07:26:50;;;;;;;0.30;0.30;;;15.50;95.40;;;;;;5058205;28;20025;-66
2021/06/30 07:29:16;;;;;;;0.75;0.30;;;15.70;95.30;;;;;;5061672;28;20029;-67
2021/06/30 07:31:42;;;;;;;1.15;1.05;;;15.90;95.30;;;;;;5052063;28;20380;-68
2021/06/30 07:34:08;;;;;;;1.85;0.28;;;16.20;95.00;;;;;;5071211;28;20036;-67
2021/06/30 07:36:33;;;;;;;0.55;0.20;;;16.40;94.70;;;;;;5071446;28;20021;-67
2021/06/30 07:38:59;;;;;;;0.20;0.20;;;16.70;94.20;;;;;;5072462;28;20082;-66
2021/06/30 07:41:25;;;;;;;1.30;0.30;;;16.90;94.20;;;;;;5072607;28;20522;-66
2021/06/30 07:43:50;;;;;;;0.20;0.20;;;17.30;94.20;;;;;;5065978;28;20531;-68
2021/06/30 07:46:16;;;;;;;0.20;0.20;;;17.30;93.50;;;;;;5056354;28;20033;-67
2021/06/30 07:48:42;;;;;;;0.50;0.20;;;17.20;93.60;;;;;;5041097;28;20033;-66
2021/06/30 07:51:07;;;;;;;1.55;0.40;;;17.00;93.50;;;;;;5056403;28;20040;-66
2021/06/30 07:53:33;;;;;;;0.30;0.30;;;16.90;93.50;;;;;;5056607;28;20031;-66
2021/06/30 07:55:59;;;;;;;0.32;0.22;;;16.80;93.50;;;;;;5053067;28;20025;-67
2021/06/30 07:58:24;;;;;;;1.38;0.20;;;16.70;93.50;;;;;;5071810;28;20096;-66
2021/06/30 08:00:50;;;;;;;0.85;0.20;;;16.60;93.50;;;;;;5071800;28;20105;-67
2021/06/30 08:03:16;;;;;;;1.98;0.25;;;16.50;93.60;;;;;;5071503;28;20028;-66
2021/06/30 08:05:41;;;;;;;2.65;0.30;;;16.50;93.50;;;;;;5070876;28;20063;-67
2021/06/30 08:08:07;;;;;;;1.05;0.20;;;16.50;93.60;;;;;;5069971;28;20501;-67
2021/06/30 08:10:33;;;;;;;0.30;0.30;;;16.60;93.60;;;;;;5063230;28;20021;-69
2021/06/30 08:12:58;;;;;;;1.80;0.30;;;16.70;93.50;;;;;;5051366;28;20045;-65
2021/06/30 08:15:24;;;;;;;0.20;0.20;;;16.90;93.30;;;;;;5069893;28;20036;-66
2021/06/30 08:17:50;;;;;;;0.20;0.20;;;17.20;92.90;;;;;;5064801;28;20018;-66
2021/06/30 08:20:17;;;;;;;0.30;0.30;;;17.50;92.80;;;;;;5033480;28;20117;-67
2021/06/30 08:22:43;;;;;;;0.30;0.20;;;18.00;92.40;;;;;;5051427;28;20025;-66
2021/06/30 08:25:13;;;;;;;0.55;0.20;;;18.00;91.80;;;;;;5067283;28;20033;-68
2021/06/30 08:27:39;;;;;;;0.60;0.20;;;17.80;91.40;;;;;;5071056;28;20453;-67
2021/06/30 08:30:07;;;;;;;0.45;0.30;;;17.70;91.50;;;;;;5070400;28;20028;-68
2021/06/30 08:32:32;;;;;;;0.10;0.10;;;17.50;91.50;;;;;;5070614;28;20107;-66
2021/06/30 08:34:58;;;;;;;0.30;0.20;;;17.30;91.30;;;;;;5070144;28;20111;-67
2021/06/30 08:37:25;;;;;;;0.55;0.22;;;17.30;91.20;;;;;;5070659;28;20522;-67
2021/06/30 08:39:51;;;;;;;0.32;0.20;;;17.30;91.50;;;;;;5071461;28;20021;-66
2021/06/30 08:42:18;;;;;;;0.75;0.30;;;17.20;91.50;;;;;;5071110;28;20085;-66
2021/06/30 08:44:44;;;;;;;0.10;0.10;;;17.30;91.40;;;;;;5069741;28;20124;-66
2021/06/30 08:47:10;;;;;;;0.20;0.20;;;17.70;91.00;;;;;;5071230;28;20028;-67
2021/06/30 08:49:43;;;;;;;0.73;0.73;;;18.10;90.70;;;;;;5070388;28;20119;-66
2021/06/30 08:52:11;;;;;;;0.20;0.20;;;18.10;90.50;;;;;;5043843;28;20051;-68
2021/06/30 08:54:41;;;;;;;2.63;0.30;;;18.00;90.40;;;;;;5069080;28;20028;-67
2021/06/30 08:57:09;;;;;;;0.10;0.10;;;17.80;90.40;;;;;;5070620;28;20012;-67
2021/06/30 08:59:35;;;;;;;0.25;0.25;;;17.90;90.20;;;;;;5052769;28;20056;-67
2021/06/30 09:02:01;;;;;;;0.68;0.20;;;17.90;89.80;;;;;;5069848;28;20385;-67
2021/06/30 09:04:26;;;;;;;0.30;0.30;;;17.70;89.60;;;;;;5069926;28;20032;-67
2021/06/30 09:06:52;;;;;;;1.20;0.30;;;17.60;90.00;;;;;;5069450;28;20444;-67
2021/06/30 09:09:17;;;;;;;0.63;0.30;;;17.60;90.10;;;;;;5070420;28;20029;-67
2021/06/30 09:11:53;;;;;;;0.38;0.30;;;17.80;90.00;;;;;;5070594;28;20024;-67
2021/06/30 09:14:23;;;;;;;0.20;0.20;;;19.00;88.90;;;;;;5070149;28;20449;-67
2021/06/30 09:17:27;;;;;;;0.25;0.25;;;20.10;85.80;;;;;;5069284;28;20043;-67
2021/06/30 09:20:04;;;;;;;0.32;0.20;;;21.10;83.40;;;;;;5047601;28;20453;-66
2021/06/30 09:22:52;;;;;;;0.20;0.20;;;21.70;80.40;;;;;;5052466;28;20028;-67
2021/06/30 09:25:26;;;;;;;0.10;0.10;;;21.50;80.30;;;;;;5051306;28;20024;-67
2021/06/30 09:27:52;;;;;;;0.20;0.20;;;21.00;80.80;;;;;;5070561;28;20100;-66
2021/06/30 09:30:18;;;;;;;0.20;0.20;;;20.90;81.40;;;;;;5070029;28;20084;-66
2021/06/30 09:33:04;;;;;;;0.20;0.10;;;20.50;82.80;;;;;;5069474;28;20129;-66
2021/06/30 09:35:34;;;;;;;0.57;0.30;;;20.00;84.00;;;;;;5069508;28;20503;-67
2021/06/30 09:38:18;;;;;;;0.73;0.20;;;19.60;84.70;;;;;;5069928;28;20028;-67
2021/06/30 09:40:45;;;;;;;0.10;0.10;;;19.30;85.70;;;;;;5050294;28;20339;-67
2021/06/30 09:43:23;;;;;;;0.20;0.20;;;19.10;86.10;;;;;;5031889;28;20025;-66
2021/06/30 09:45:48;;;;;;;0.40;0.30;;;19.00;85.10;;;;;;5052911;28;20027;-66
2021/06/30 09:48:33;;;;;;;0.20;0.20;;;18.80;85.90;;;;;;5064764;28;20029;-66
2021/06/30 09:51:00;;;;;;;0.85;0.25;;;18.70;85.50;;;;;;5074392;28;20021;-66
2021/06/30 09:53:32;;;;;;;0.28;0.20;;;18.60;86.00;;;;;;5074111;28;20102;-66
2021/06/30 09:56:12;;;;;;;0.98;0.57;;;18.40;86.10;;;;;;5073049;28;20059;-66
2021/06/30 09:58:38;;;;;;;0.80;0.40;;;18.20;85.90;;;;;;5073888;28;20021;-65
2021/06/30 10:01:20;;;;;;;0.22;0.22;;;17.90;86.90;;;;;;5073607;28;20123;-65
2021/06/30 10:03:47;;;;;;;2.83;0.40;;;17.50;87.00;;;;;;5073760;28;20086;-66
2021/06/30 10:06:27;;;;;;;0.30;0.30;;;17.30;87.40;;;;;;5072980;28;20025;-66
2021/06/30 10:08:55;;;;;;;0.57;0.52;;;17.00;88.40;;;;;;5073921;28;20051;-66
2021/06/30 10:11:21;;;;;;;2.42;0.40;;;16.80;89.00;;;;;;5074239;28;20024;-66
2021/06/30 10:13:48;;;;;;;0.95;0.45;;;16.70;89.50;;;;;;5073115;28;20025;-66
2021/06/30 10:16:17;;;;;;;0.40;0.40;;;16.60;90.00;;;;;;5072777;28;20056;-66
2021/06/30 10:18:43;;;;;;;0.40;0.40;;;16.60;90.30;;;;;;5052922;28;20387;-65
2021/06/30 10:21:10;;;;;;;0.52;0.40;;;16.60;90.20;;;;;;5060327;28;20381;-66
2021/06/30 10:23:37;;;;;;;0.30;0.30;;;16.50;90.40;;;;;;5072566;28;20024;-66
2021/06/30 10:26:03;;;;;;;1.80;0.30;;;16.60;90.60;;;;;;5070287;28;20021;-68
2021/06/30 10:28:29;;;;;;;0.47;0.30;;;17.10;90.90;;;;;;5073084;28;20037;-67
2021/06/30 10:30:55;;;;;;;0.32;0.32;;;17.50;91.30;;;;;;5072206;28;20380;-68
2021/06/30 10:33:38;;;;;;;1.05;0.30;;;17.90;91.00;;;;;;5071816;28;20035;-69
2021/06/30 10:36:06;;;;;;;1.40;0.28;;;18.30;90.50;;;;;;5065162;28;20103;-69
2021/06/30 10:38:53;;;;;;;0.22;0.20;;;18.40;90.10;;;;;;5073189;28;20021;-70
2021/06/30 10:41:39;;;;;;;0.20;0.20;;;18.60;89.60;;;;;;5073595;28;20055;-69
2021/06/30 10:44:11;;;;;;;0.43;0.30;;;18.50;88.80;;;;;;5073377;28;20107;-70
2021/06/30 10:46:37;;;;;;;0.85;0.40;;;18.40;89.00;;;;;;5062740;28;20048;-67
2021/06/30 10:49:19;;;;;;;0.30;0.30;;;18.40;88.90;;;;;;5071937;28;20527;-68
2021/06/30 10:51:47;;;;;;;4.25;0.30;;;18.30;88.40;;;;;;5065858;28;20079;-66
2021/06/30 10:54:37;;;;;;;0.25;0.20;;;18.30;88.30;;;;;;5065056;28;20041;-65
2021/06/30 10:57:23;;;;;;;0.47;0.20;;;18.30;88.40;;;;;;5073767;28;20032;-65
2021/06/30 10:59:58;;;;;;;0.68;0.30;;;18.40;88.60;;;;;;5052763;28;20124;-67
2021/06/30 11:02:25;;;;;;;0.98;0.20;;;18.60;87.70;;;;;;5070284;28;20033;-65
2021/06/30 11:04:51;;;;;;;0.10;0.10;;;18.80;88.20;;;;;;5072201;28;20133;-65
2021/06/30 11:07:35;;;;;;;0.20;0.20;;;19.00;87.10;;;;;;5072881;28;20029;-66
2021/06/30 11:10:16;;;;;;;0.20;0.20;;;19.00;86.10;;;;;;5055263;28;20032;-65
2021/06/30 11:12:59;;;;;;;0.20;0.20;;;19.00;85.70;;;;;;5054767;28;20028;-66
2021/06/30 11:15:37;;;;;;;0.55;0.30;;;18.90;85.30;;;;;;5071638;28;20036;-66
2021/06/30 11:18:04;;;;;;;0.47;0.20;;;18.90;85.40;;;;;;5065043;28;20017;-66
2021/06/30 11:20:45;;;;;;;0.30;0.30;;;18.80;85.80;;;;;;5061132;28;20025;-65
2021/06/30 11:23:22;;;;;;;0.10;0.10;;;18.60;84.80;;;;;;5034576;28;20138;-65
2021/06/30 11:25:49;;;;;;;0.20;0.20;;;18.40;84.90;;;;;;5051577;28;20755;-65
2021/06/30 11:28:32;;;;;;;1.25;0.20;;;18.30;85.50;;;;;;5072629;28;20023;-65
2021/06/30 11:30:58;;;;;;;0.15;0.10;;;18.20;85.80;;;;;;5072042;28;20020;-65
2021/06/30 11:33:24;;;;;;;0.20;0.20;;;18.20;86.70;;;;;;5071872;28;20116;-65
2021/06/30 11:35:51;;;;;;;0.25;0.10;;;18.30;87.50;;;;;;5051155;28;20021;-64
2021/06/30 11:38:18;;;;;;;1.30;0.45;;;18.40;88.00;;;;;;5051692;28;20165;-65
2021/06/30 11:40:51;;;;;;;0.75;0.25;;;18.60;88.30;;;;;;5054339;28;20059;-65
2021/06/30 11:43:22;;;;;;;0.35;0.25;;;18.90;88.10;;;;;;5071869;28;20040;-65
2021/06/30 11:45:48;;;;;;;0.20;0.20;;;19.10;86.20;;;;;;5065312;28;20060;-66
2021/06/30 11:48:14;;;;;;;0.20;0.20;;;19.10;85.70;;;;;;5067556;28;20440;-66
2021/06/30 11:50:54;;;;;;;0.30;0.30;;;19.20;86.10;;;;;;5053650;28;20473;-66
2021/06/30 11:53:44;;;;;;;1.27;0.15;;;19.30;85.30;;;;;;5052371;28;20420;-65
2021/06/30 11:56:34;;;;;;;0.20;0.20;;;19.30;84.90;;;;;;5070943;28;20020;-65
2021/06/30 11:59:01;;;;;;;0.30;0.30;;;19.40;85.10;;;;;;5045650;28;20044;-65
2021/06/30 12:01:31;;;;;;;0.43;0.20;;;19.40;85.40;;;;;;5071897;28;20021;-65
2021/06/30 12:04:15;;;;;;;0.25;0.25;;;19.40;84.20;;;;;;5071601;28;20016;-65
2021/06/30 12:06:42;;;;;;;0.17;0.17;;;19.20;83.90;;;;;;5070194;28;20090;-64
2021/06/30 12:09:16;;;;;;;0.88;0.70;;;19.00;84.40;;;;;;5070680;28;20087;-65
2021/06/30 12:11:46;;;;;;;0.20;0.20;;;18.90;85.00;;;;;;5071410;28;20028;-65
2021/06/30 12:14:16;;;;;;;0.20;0.20;;;18.80;84.70;;;;;;5071773;28;20051;-65
2021/06/30 12:16:45;;;;;;;0.20;0.20;;;18.80;84.50;;;;;;5070118;28;20059;-65
2021/06/30 12:19:12;;;;;;;0.20;0.20;;;18.70;84.80;;;;;;5068786;28;20075;-65
2021/06/30 12:21:39;;;;;;;0.20;0.20;;;18.70;84.90;;;;;;5062466;28;20430;-65
2021/06/30 12:24:18;;;;;;;0.35;0.35;;;18.60;84.70;;;;;;5071057;28;20102;-65
2021/06/30 12:27:02;;;;;;;0.20;0.20;;;18.60;84.40;;;;;;5069816;28;20020;-65
2021/06/30 12:29:28;;;;;;;0.30;0.30;;;18.40;84.70;;;;;;5071405;28;20024;-66
2021/06/30 12:31:54;;;;;;;1.00;0.90;;;18.30;84.80;;;;;;5071085;28;20108;-64
2021/06/30 12:34:20;;;;;;;0.90;0.40;;;18.30;84.80;;;;;;5070573;28;20036;-65
2021/06/30 12:36:46;;;;;;;0.25;0.25;;;18.20;85.10;;;;;;5069602;28;20062;-65
2021/06/30 12:39:27;;;;;;;0.77;0.73;;;18.20;85.60;;;;;;5071151;28;20028;-65
2021/06/30 12:41:58;;;;;;;0.50;0.50;;;18.20;85.20;;;;;;5070601;28;20574;-65
2021/06/30 12:44:25;;;;;;;0.22;0.22;;;18.20;85.60;;;;;;5070649;28;20450;-65
2021/06/30 12:47:12;;;;;;;0.88;0.20;;;18.20;85.60;;;;;;5068643;28;20085;-65
2021/06/30 12:49:39;;;;;;;0.20;0.20;;;18.20;84.90;;;;;;5070514;28;20029;-66
2021/06/30 12:52:18;;;;;;;0.20;0.20;;;18.10;84.40;;;;;;5071155;28;20024;-65
2021/06/30 12:55:13;;;;;;;0.20;0.20;;;18.10;84.20;;;;;;5068711;28;20029;-66